sensor_id;sensor_type;location;lat;lon;timestamp;temperature;humidity
26687;DHT22;14298;50.900;4.648;2023-02-28T00:01:55;-2.70;97.10
26687;DHT22;14298;50.900;4.648;2023-02-28T00:04:23;-2.70;97.10
26687;DHT22;14298;50.900;4.648;2023-02-28T00:06:51;-2.80;97.10
26687;DHT22;14298;50.900;4.648;2023-02-28T00:09:20;-2.80;97.10
26687;DHT22;14298;50.900;4.648;2023-02-28T00:11:48;-2.80;97.10
26687;DHT22;14298;50.900;4.648;2023-02-28T00:14:16;-2.80;97.10
26687;DHT22;14298;50.900;4.648;2023-02-28T00:16:45;-2.80;97.10
26687;DHT22;14298;50.900;4.648;2023-02-28T00:19:13;-2.80;97.10
26687;DHT22;14298;50.900;4.648;2023-02-28T00:21:41;-2.80;97.10
26687;DHT22;14298;50.900;4.648;2023-02-28T00:24:10;-2.80;97.10
26687;DHT22;14298;50.900;4.648;2023-02-28T00:26:39;-2.80;97.10
26687;DHT22;14298;50.900;4.648;2023-02-28T00:29:26;-2.80;97.10
26687;DHT22;14298;50.900;4.648;2023-02-28T00:31:55;-2.80;97.10
26687;DHT22;14298;50.900;4.648;2023-02-28T00:34:23;-2.80;97.10
26687;DHT22;14298;50.900;4.648;2023-02-28T00:36:51;-2.90;97.10
26687;DHT22;14298;50.900;4.648;2023-02-28T00:39:20;-3.00;97.10
26687;DHT22;14298;50.900;4.648;2023-02-28T00:41:49;-3.00;97.10
26687;DHT22;14298;50.900;4.648;2023-02-28T00:44:17;-3.00;97.10
26687;DHT22;14298;50.900;4.648;2023-02-28T00:46:47;-3.00;97.10
26687;DHT22;14298;50.900;4.648;2023-02-28T00:49:15;-3.00;97.10
26687;DHT22;14298;50.900;4.648;2023-02-28T00:51:44;-3.00;97.10
26687;DHT22;14298;50.900;4.648;2023-02-28T00:54:12;-3.10;97.10
26687;DHT22;14298;50.900;4.648;2023-02-28T00:56:40;-3.20;97.10
26687;DHT22;14298;50.900;4.648;2023-02-28T00:59:09;-3.20;97.10
26687;DHT22;14298;50.900;4.648;2023-02-28T01:01:38;-3.30;97.10
26687;DHT22;14298;50.900;4.648;2023-02-28T01:04:07;-3.20;97.10
26687;DHT22;14298;50.900;4.648;2023-02-28T01:06:35;-3.10;97.10
26687;DHT22;14298;50.900;4.648;2023-02-28T01:09:05;-3.10;97.10
26687;DHT22;14298;50.900;4.648;2023-02-28T01:11:34;-3.10;97.10
26687;DHT22;14298;50.900;4.648;2023-02-28T01:14:03;-3.20;97.10
26687;DHT22;14298;50.900;4.648;2023-02-28T01:16:31;-3.20;97.10
26687;DHT22;14298;50.900;4.648;2023-02-28T01:18:59;-3.30;97.10
26687;DHT22;14298;50.900;4.648;2023-02-28T01:21:28;-3.40;97.10
26687;DHT22;14298;50.900;4.648;2023-02-28T01:23:57;-3.40;97.10
26687;DHT22;14298;50.900;4.648;2023-02-28T01:26:26;-3.50;97.10
26687;DHT22;14298;50.900;4.648;2023-02-28T01:28:54;-3.50;97.10
26687;DHT22;14298;50.900;4.648;2023-02-28T01:31:23;-3.60;97.10
26687;DHT22;14298;50.900;4.648;2023-02-28T01:33:52;-3.60;97.10
26687;DHT22;14298;50.900;4.648;2023-02-28T01:36:23;-3.50;97.10
26687;DHT22;14298;50.900;4.648;2023-02-28T01:38:51;-3.50;97.10
26687;DHT22;14298;50.900;4.648;2023-02-28T01:41:23;-3.50;97.10
26687;DHT22;14298;50.900;4.648;2023-02-28T01:44:03;-3.50;97.10
26687;DHT22;14298;50.900;4.648;2023-02-28T01:46:34;-3.50;97.10
26687;DHT22;14298;50.900;4.648;2023-02-28T01:49:14;-3.50;97.10
26687;DHT22;14298;50.900;4.648;2023-02-28T01:51:53;-3.40;97.10
26687;DHT22;14298;50.900;4.648;2023-02-28T01:54:27;-3.40;97.10
26687;DHT22;14298;50.900;4.648;2023-02-28T01:57:03;-3.30;97.10
26687;DHT22;14298;50.900;4.648;2023-02-28T01:59:33;-3.30;97.10
26687;DHT22;14298;50.900;4.648;2023-02-28T02:02:02;-3.20;97.10
26687;DHT22;14298;50.900;4.648;2023-02-28T02:04:39;-3.20;97.10
26687;DHT22;14298;50.900;4.648;2023-02-28T02:07:27;-3.30;97.10
26687;DHT22;14298;50.900;4.648;2023-02-28T02:15:35;-3.50;97.10
26687;DHT22;14298;50.900;4.648;2023-02-28T02:18:18;-3.60;97.10
26687;DHT22;14298;50.900;4.648;2023-02-28T02:23:27;-3.70;97.10
26687;DHT22;14298;50.900;4.648;2023-02-28T02:26:21;-3.80;97.10
26687;DHT22;14298;50.900;4.648;2023-02-28T02:40:00;-3.80;97.10
26687;DHT22;14298;50.900;4.648;2023-02-28T02:48:24;-3.80;97.10
26687;DHT22;14298;50.900;4.648;2023-02-28T02:51:01;-3.80;97.10
26687;DHT22;14298;50.900;4.648;2023-02-28T02:53:32;-3.80;97.10
26687;DHT22;14298;50.900;4.648;2023-02-28T02:56:02;-3.90;97.10
26687;DHT22;14298;50.900;4.648;2023-02-28T02:58:34;-3.90;97.10
26687;DHT22;14298;50.900;4.648;2023-02-28T03:01:04;-3.90;97.10
26687;DHT22;14298;50.900;4.648;2023-02-28T03:03:33;-4.00;97.10
26687;DHT22;14298;50.900;4.648;2023-02-28T03:06:03;-4.00;97.10
26687;DHT22;14298;50.900;4.648;2023-02-28T03:08:37;-4.00;97.10
26687;DHT22;14298;50.900;4.648;2023-02-28T03:11:11;-4.00;97.10
26687;DHT22;14298;50.900;4.648;2023-02-28T03:16:34;-4.00;97.10
26687;DHT22;14298;50.900;4.648;2023-02-28T03:19:13;-4.00;97.10
26687;DHT22;14298;50.900;4.648;2023-02-28T03:21:43;-4.00;97.10
26687;DHT22;14298;50.900;4.648;2023-02-28T03:24:27;-4.00;97.10
26687;DHT22;14298;50.900;4.648;2023-02-28T03:26:57;-4.10;97.10
26687;DHT22;14298;50.900;4.648;2023-02-28T03:29:32;-4.20;97.10
26687;DHT22;14298;50.900;4.648;2023-02-28T03:32:04;-4.20;97.10
26687;DHT22;14298;50.900;4.648;2023-02-28T03:34:38;-4.30;97.10
26687;DHT22;14298;50.900;4.648;2023-02-28T03:37:16;-4.30;97.10
26687;DHT22;14298;50.900;4.648;2023-02-28T03:39:53;-4.40;97.10
26687;DHT22;14298;50.900;4.648;2023-02-28T03:42:22;-4.40;97.10
26687;DHT22;14298;50.900;4.648;2023-02-28T03:45:05;-4.40;97.10
26687;DHT22;14298;50.900;4.648;2023-02-28T03:53:12;-4.40;97.10
26687;DHT22;14298;50.900;4.648;2023-02-28T03:55:39;-4.40;97.10
26687;DHT22;14298;50.900;4.648;2023-02-28T03:58:21;-4.40;97.10
26687;DHT22;14298;50.900;4.648;2023-02-28T04:00:52;-4.40;97.10
26687;DHT22;14298;50.900;4.648;2023-02-28T04:03:20;-4.50;97.10
26687;DHT22;14298;50.900;4.648;2023-02-28T04:05:53;-4.40;97.10
26687;DHT22;14298;50.900;4.648;2023-02-28T04:08:22;-4.20;97.10
26687;DHT22;14298;50.900;4.648;2023-02-28T04:10:57;-4.00;97.10
26687;DHT22;14298;50.900;4.648;2023-02-28T04:13:25;-3.90;97.10
26687;DHT22;14298;50.900;4.648;2023-02-28T04:15:53;-3.80;97.10
26687;DHT22;14298;50.900;4.648;2023-02-28T04:18:22;-3.70;97.10
26687;DHT22;14298;50.900;4.648;2023-02-28T04:20:50;-3.70;97.10
26687;DHT22;14298;50.900;4.648;2023-02-28T04:23:18;-3.60;97.10
26687;DHT22;14298;50.900;4.648;2023-02-28T04:25:46;-3.50;97.10
26687;DHT22;14298;50.900;4.648;2023-02-28T04:28:15;-3.50;97.10
26687;DHT22;14298;50.900;4.648;2023-02-28T04:30:43;-3.50;97.10
26687;DHT22;14298;50.900;4.648;2023-02-28T04:33:11;-3.50;97.10
26687;DHT22;14298;50.900;4.648;2023-02-28T04:35:40;-3.50;97.10
26687;DHT22;14298;50.900;4.648;2023-02-28T04:38:08;-3.50;97.10
26687;DHT22;14298;50.900;4.648;2023-02-28T04:40:36;-3.50;97.10
26687;DHT22;14298;50.900;4.648;2023-02-28T04:43:05;-3.40;97.10
26687;DHT22;14298;50.900;4.648;2023-02-28T04:45:33;-3.40;97.10
26687;DHT22;14298;50.900;4.648;2023-02-28T04:48:03;-3.40;97.10
26687;DHT22;14298;50.900;4.648;2023-02-28T04:50:31;-3.50;97.10
26687;DHT22;14298;50.900;4.648;2023-02-28T04:53:00;-3.50;97.10
26687;DHT22;14298;50.900;4.648;2023-02-28T04:55:28;-3.60;97.10
26687;DHT22;14298;50.900;4.648;2023-02-28T04:57:56;-3.70;97.10
26687;DHT22;14298;50.900;4.648;2023-02-28T05:00:25;-3.80;97.10
26687;DHT22;14298;50.900;4.648;2023-02-28T05:02:53;-3.70;97.10
26687;DHT22;14298;50.900;4.648;2023-02-28T05:05:21;-3.60;97.10
26687;DHT22;14298;50.900;4.648;2023-02-28T05:07:50;-3.50;97.10
26687;DHT22;14298;50.900;4.648;2023-02-28T05:10:18;-3.50;97.10
26687;DHT22;14298;50.900;4.648;2023-02-28T05:12:47;-3.50;97.10
26687;DHT22;14298;50.900;4.648;2023-02-28T05:15:16;-3.40;97.10
26687;DHT22;14298;50.900;4.648;2023-02-28T05:17:45;-3.40;97.10
26687;DHT22;14298;50.900;4.648;2023-02-28T05:20:13;-3.40;97.10
26687;DHT22;14298;50.900;4.648;2023-02-28T05:22:42;-3.50;97.10
26687;DHT22;14298;50.900;4.648;2023-02-28T05:25:16;-3.40;97.10
26687;DHT22;14298;50.900;4.648;2023-02-28T05:27:45;-3.30;97.10
26687;DHT22;14298;50.900;4.648;2023-02-28T05:30:14;-3.20;97.10
26687;DHT22;14298;50.900;4.648;2023-02-28T05:32:42;-3.10;97.10
26687;DHT22;14298;50.900;4.648;2023-02-28T05:35:11;-3.00;97.10
26687;DHT22;14298;50.900;4.648;2023-02-28T05:37:39;-2.90;97.10
26687;DHT22;14298;50.900;4.648;2023-02-28T05:40:08;-2.90;97.10
26687;DHT22;14298;50.900;4.648;2023-02-28T05:42:39;-2.80;97.10
26687;DHT22;14298;50.900;4.648;2023-02-28T05:45:09;-2.70;97.10
26687;DHT22;14298;50.900;4.648;2023-02-28T05:47:38;-2.60;97.10
26687;DHT22;14298;50.900;4.648;2023-02-28T05:50:07;-2.50;97.10
26687;DHT22;14298;50.900;4.648;2023-02-28T05:52:37;-2.50;97.10
26687;DHT22;14298;50.900;4.648;2023-02-28T05:55:06;-2.40;97.10
26687;DHT22;14298;50.900;4.648;2023-02-28T05:57:35;-2.40;97.10
26687;DHT22;14298;50.900;4.648;2023-02-28T06:00:04;-2.40;97.10
26687;DHT22;14298;50.900;4.648;2023-02-28T06:02:33;-2.30;97.10
26687;DHT22;14298;50.900;4.648;2023-02-28T06:05:01;-2.30;97.10
26687;DHT22;14298;50.900;4.648;2023-02-28T06:07:29;-2.30;97.10
26687;DHT22;14298;50.900;4.648;2023-02-28T06:09:58;-2.20;97.10
26687;DHT22;14298;50.900;4.648;2023-02-28T06:12:26;-2.10;97.10
26687;DHT22;14298;50.900;4.648;2023-02-28T06:14:54;-2.20;97.10
26687;DHT22;14298;50.900;4.648;2023-02-28T06:17:23;-2.20;97.10
26687;DHT22;14298;50.900;4.648;2023-02-28T06:19:51;-2.10;97.10
26687;DHT22;14298;50.900;4.648;2023-02-28T06:22:19;-2.10;97.10
26687;DHT22;14298;50.900;4.648;2023-02-28T06:24:48;-2.10;97.10
26687;DHT22;14298;50.900;4.648;2023-02-28T06:27:16;-2.10;97.10
26687;DHT22;14298;50.900;4.648;2023-02-28T06:29:45;-2.00;97.10
26687;DHT22;14298;50.900;4.648;2023-02-28T06:32:32;-2.00;97.10
26687;DHT22;14298;50.900;4.648;2023-02-28T06:35:01;-2.00;97.10
26687;DHT22;14298;50.900;4.648;2023-02-28T06:37:31;-1.90;97.10
26687;DHT22;14298;50.900;4.648;2023-02-28T06:39:59;-1.90;97.10
26687;DHT22;14298;50.900;4.648;2023-02-28T06:42:28;-2.00;97.10
26687;DHT22;14298;50.900;4.648;2023-02-28T06:44:58;-2.00;97.10
26687;DHT22;14298;50.900;4.648;2023-02-28T06:47:26;-2.00;97.10
26687;DHT22;14298;50.900;4.648;2023-02-28T06:49:54;-1.90;97.10
26687;DHT22;14298;50.900;4.648;2023-02-28T06:52:23;-1.90;97.10
26687;DHT22;14298;50.900;4.648;2023-02-28T06:54:51;-1.80;97.10
26687;DHT22;14298;50.900;4.648;2023-02-28T06:57:21;-1.70;97.10
26687;DHT22;14298;50.900;4.648;2023-02-28T06:59:51;-1.70;97.10
26687;DHT22;14298;50.900;4.648;2023-02-28T07:02:19;-1.70;97.10
26687;DHT22;14298;50.900;4.648;2023-02-28T07:04:48;-1.80;97.10
26687;DHT22;14298;50.900;4.648;2023-02-28T07:07:16;-1.80;97.10
26687;DHT22;14298;50.900;4.648;2023-02-28T07:09:44;-1.80;97.10
26687;DHT22;14298;50.900;4.648;2023-02-28T07:12:12;-1.90;97.10
26687;DHT22;14298;50.900;4.648;2023-02-28T07:14:41;-2.00;97.10
26687;DHT22;14298;50.900;4.648;2023-02-28T07:17:11;-2.00;97.10
26687;DHT22;14298;50.900;4.648;2023-02-28T07:19:40;-2.00;97.10
26687;DHT22;14298;50.900;4.648;2023-02-28T07:22:08;-2.00;97.10
26687;DHT22;14298;50.900;4.648;2023-02-28T07:24:36;-2.00;97.10
26687;DHT22;14298;50.900;4.648;2023-02-28T07:27:05;-2.00;97.10
26687;DHT22;14298;50.900;4.648;2023-02-28T07:29:33;-1.90;97.10
26687;DHT22;14298;50.900;4.648;2023-02-28T07:32:02;-1.90;97.10
26687;DHT22;14298;50.900;4.648;2023-02-28T07:34:30;-1.70;97.10
26687;DHT22;14298;50.900;4.648;2023-02-28T07:36:59;-1.40;97.10
26687;DHT22;14298;50.900;4.648;2023-02-28T07:39:29;-1.30;97.10
26687;DHT22;14298;50.900;4.648;2023-02-28T07:41:57;-1.30;97.10
26687;DHT22;14298;50.900;4.648;2023-02-28T07:44:27;-1.10;97.10
26687;DHT22;14298;50.900;4.648;2023-02-28T07:46:55;-0.90;97.10
26687;DHT22;14298;50.900;4.648;2023-02-28T07:49:24;-0.60;97.10
26687;DHT22;14298;50.900;4.648;2023-02-28T07:51:52;-0.10;97.10
26687;DHT22;14298;50.900;4.648;2023-02-28T07:54:20;0.30;97.10
26687;DHT22;14298;50.900;4.648;2023-02-28T07:56:49;0.60;97.10
26687;DHT22;14298;50.900;4.648;2023-02-28T07:59:17;0.90;97.10
26687;DHT22;14298;50.900;4.648;2023-02-28T08:01:45;1.10;97.10
26687;DHT22;14298;50.900;4.648;2023-02-28T08:04:13;1.30;97.10
26687;DHT22;14298;50.900;4.648;2023-02-28T08:06:42;1.70;97.10
26687;DHT22;14298;50.900;4.648;2023-02-28T08:09:10;1.90;97.10
26687;DHT22;14298;50.900;4.648;2023-02-28T08:11:38;2.20;97.10
26687;DHT22;14298;50.900;4.648;2023-02-28T08:14:07;2.30;97.10
26687;DHT22;14298;50.900;4.648;2023-02-28T08:16:35;2.40;97.10
26687;DHT22;14298;50.900;4.648;2023-02-28T08:19:04;2.50;97.10
26687;DHT22;14298;50.900;4.648;2023-02-28T08:21:32;2.60;97.10
26687;DHT22;14298;50.900;4.648;2023-02-28T08:24:01;2.80;97.10
26687;DHT22;14298;50.900;4.648;2023-02-28T08:26:29;2.90;97.10
26687;DHT22;14298;50.900;4.648;2023-02-28T08:28:57;3.10;97.10
26687;DHT22;14298;50.900;4.648;2023-02-28T08:31:25;3.20;97.10
26687;DHT22;14298;50.900;4.648;2023-02-28T08:33:54;3.20;97.10
26687;DHT22;14298;50.900;4.648;2023-02-28T08:36:25;3.30;97.10
26687;DHT22;14298;50.900;4.648;2023-02-28T08:38:56;3.40;97.10
26687;DHT22;14298;50.900;4.648;2023-02-28T08:41:27;3.30;97.10
26687;DHT22;14298;50.900;4.648;2023-02-28T08:43:55;3.60;97.10
26687;DHT22;14298;50.900;4.648;2023-02-28T08:46:24;3.80;97.10
26687;DHT22;14298;50.900;4.648;2023-02-28T08:48:54;3.90;97.10
26687;DHT22;14298;50.900;4.648;2023-02-28T08:51:23;3.80;97.10
26687;DHT22;14298;50.900;4.648;2023-02-28T08:53:54;3.90;97.10
26687;DHT22;14298;50.900;4.648;2023-02-28T08:56:24;3.90;97.10
26687;DHT22;14298;50.900;4.648;2023-02-28T08:58:55;4.10;97.10
26687;DHT22;14298;50.900;4.648;2023-02-28T09:01:26;4.00;97.10
26687;DHT22;14298;50.900;4.648;2023-02-28T09:03:56;4.30;97.10
26687;DHT22;14298;50.900;4.648;2023-02-28T09:06:26;4.40;97.10
26687;DHT22;14298;50.900;4.648;2023-02-28T09:08:56;4.80;97.10
26687;DHT22;14298;50.900;4.648;2023-02-28T09:11:28;4.60;97.10
26687;DHT22;14298;50.900;4.648;2023-02-28T09:13:58;4.50;97.10
26687;DHT22;14298;50.900;4.648;2023-02-28T09:16:27;5.00;97.10
26687;DHT22;14298;50.900;4.648;2023-02-28T09:18:56;5.60;97.10
26687;DHT22;14298;50.900;4.648;2023-02-28T09:21:24;6.30;97.10
26687;DHT22;14298;50.900;4.648;2023-02-28T09:23:54;6.70;97.10
26687;DHT22;14298;50.900;4.648;2023-02-28T09:26:25;5.90;97.10
26687;DHT22;14298;50.900;4.648;2023-02-28T09:28:54;5.10;97.10
26687;DHT22;14298;50.900;4.648;2023-02-28T09:31:27;5.10;97.10
26687;DHT22;14298;50.900;4.648;2023-02-28T09:33:56;5.40;97.10
26687;DHT22;14298;50.900;4.648;2023-02-28T09:36:27;5.30;97.10
26687;DHT22;14298;50.900;4.648;2023-02-28T09:38:57;5.60;97.10
26687;DHT22;14298;50.900;4.648;2023-02-28T09:41:26;6.00;97.10
26687;DHT22;14298;50.900;4.648;2023-02-28T09:44:02;6.40;97.10
26687;DHT22;14298;50.900;4.648;2023-02-28T09:46:37;6.60;97.10
26687;DHT22;14298;50.900;4.648;2023-02-28T09:49:12;6.50;97.10
26687;DHT22;14298;50.900;4.648;2023-02-28T09:51:47;6.40;97.10
26687;DHT22;14298;50.900;4.648;2023-02-28T09:54:18;6.10;97.10
26687;DHT22;14298;50.900;4.648;2023-02-28T10:09:00;5.00;97.10
26687;DHT22;14298;50.900;4.648;2023-02-28T10:11:29;3.80;97.10
26687;DHT22;14298;50.900;4.648;2023-02-28T10:14:14;4.00;97.10
26687;DHT22;14298;50.900;4.648;2023-02-28T10:16:51;3.80;97.10
26687;DHT22;14298;50.900;4.648;2023-02-28T10:19:31;3.80;97.10
26687;DHT22;14298;50.900;4.648;2023-02-28T10:22:05;4.00;97.10
26687;DHT22;14298;50.900;4.648;2023-02-28T10:24:37;4.00;97.10
26687;DHT22;14298;50.900;4.648;2023-02-28T10:27:28;4.00;97.10
26687;DHT22;14298;50.900;4.648;2023-02-28T10:29:58;3.90;97.10
26687;DHT22;14298;50.900;4.648;2023-02-28T10:32:30;3.90;97.10
26687;DHT22;14298;50.900;4.648;2023-02-28T10:35:23;3.90;97.10
26687;DHT22;14298;50.900;4.648;2023-02-28T10:37:54;3.80;97.10
26687;DHT22;14298;50.900;4.648;2023-02-28T10:40:26;4.00;97.10
26687;DHT22;14298;50.900;4.648;2023-02-28T10:45:55;4.00;97.10
26687;DHT22;14298;50.900;4.648;2023-02-28T10:50:57;3.70;97.10
26687;DHT22;14298;50.900;4.648;2023-02-28T10:53:32;3.80;97.10
26687;DHT22;14298;50.900;4.648;2023-02-28T10:59:00;4.00;97.10
26687;DHT22;14298;50.900;4.648;2023-02-28T11:01:46;3.90;97.10
26687;DHT22;14298;50.900;4.648;2023-02-28T11:07:21;3.70;97.10
26687;DHT22;14298;50.900;4.648;2023-02-28T11:09:54;3.80;97.10
26687;DHT22;14298;50.900;4.648;2023-02-28T11:12:42;3.90;97.10
26687;DHT22;14298;50.900;4.648;2023-02-28T11:15:28;4.00;97.10
26687;DHT22;14298;50.900;4.648;2023-02-28T11:20:38;3.80;97.10
26687;DHT22;14298;50.900;4.648;2023-02-28T11:23:11;3.80;97.10
26687;DHT22;14298;50.900;4.648;2023-02-28T11:25:39;4.00;97.10
26687;DHT22;14298;50.900;4.648;2023-02-28T11:31:16;4.10;97.10
26687;DHT22;14298;50.900;4.648;2023-02-28T11:33:52;3.90;97.10
26687;DHT22;14298;50.900;4.648;2023-02-28T11:36:29;4.00;97.10
26687;DHT22;14298;50.900;4.648;2023-02-28T11:39:04;4.10;97.10
26687;DHT22;14298;50.900;4.648;2023-02-28T11:41:41;4.20;97.10
26687;DHT22;14298;50.900;4.648;2023-02-28T11:44:23;4.20;97.10
26687;DHT22;14298;50.900;4.648;2023-02-28T11:46:57;4.20;97.10
26687;DHT22;14298;50.900;4.648;2023-02-28T12:11:35;4.40;97.10
26687;DHT22;14298;50.900;4.648;2023-02-28T12:28:20;4.80;97.10
26687;DHT22;14298;50.900;4.648;2023-02-28T12:31:11;5.00;97.10
26687;DHT22;14298;50.900;4.648;2023-02-28T12:33:38;4.80;97.10
26687;DHT22;14298;50.900;4.648;2023-02-28T12:36:14;4.60;97.10
26687;DHT22;14298;50.900;4.648;2023-02-28T12:38:44;4.60;97.10
26687;DHT22;14298;50.900;4.648;2023-02-28T12:41:35;4.80;97.10
26687;DHT22;14298;50.900;4.648;2023-02-28T12:44:06;4.60;97.10
26687;DHT22;14298;50.900;4.648;2023-02-28T12:46:37;4.50;97.10
26687;DHT22;14298;50.900;4.648;2023-02-28T12:49:13;4.70;97.10
26687;DHT22;14298;50.900;4.648;2023-02-28T12:51:41;4.70;97.10
26687;DHT22;14298;50.900;4.648;2023-02-28T12:54:23;4.90;97.10
26687;DHT22;14298;50.900;4.648;2023-02-28T12:57:13;4.90;97.10
26687;DHT22;14298;50.900;4.648;2023-02-28T13:00:02;4.60;97.10
26687;DHT22;14298;50.900;4.648;2023-02-28T13:05:26;4.60;97.10
26687;DHT22;14298;50.900;4.648;2023-02-28T13:10:51;4.80;97.10
26687;DHT22;14298;50.900;4.648;2023-02-28T13:13:26;4.60;97.10
26687;DHT22;14298;50.900;4.648;2023-02-28T13:16:05;4.80;97.10
26687;DHT22;14298;50.900;4.648;2023-02-28T13:18:37;4.70;97.10
26687;DHT22;14298;50.900;4.648;2023-02-28T13:21:08;4.50;97.10
26687;DHT22;14298;50.900;4.648;2023-02-28T13:24:03;4.90;97.10
26687;DHT22;14298;50.900;4.648;2023-02-28T13:40:06;4.90;97.10
26687;DHT22;14298;50.900;4.648;2023-02-28T13:45:24;5.00;97.10
26687;DHT22;14298;50.900;4.648;2023-02-28T13:48:03;4.90;97.10
26687;DHT22;14298;50.900;4.648;2023-02-28T13:50:48;4.90;97.10
26687;DHT22;14298;50.900;4.648;2023-02-28T13:53:29;5.00;97.10
26687;DHT22;14298;50.900;4.648;2023-02-28T13:56:23;5.10;97.10
26687;DHT22;14298;50.900;4.648;2023-02-28T13:59:12;4.90;97.10
26687;DHT22;14298;50.900;4.648;2023-02-28T14:05:37;4.90;97.10
26687;DHT22;14298;50.900;4.648;2023-02-28T14:07:26;4.90;97.10
26687;DHT22;14298;50.900;4.648;2023-02-28T14:10:05;4.90;97.10
26687;DHT22;14298;50.900;4.648;2023-02-28T14:18:25;5.00;97.10
26687;DHT22;14298;50.900;4.648;2023-02-28T14:20:57;5.00;97.10
26687;DHT22;14298;50.900;4.648;2023-02-28T14:23:34;4.90;97.10
26687;DHT22;14298;50.900;4.648;2023-02-28T14:29:33;5.00;97.10
26687;DHT22;14298;50.900;4.648;2023-02-28T14:37:54;5.00;97.10
26687;DHT22;14298;50.900;4.648;2023-02-28T14:40:31;5.00;97.10
26687;DHT22;14298;50.900;4.648;2023-02-28T14:43:03;5.00;97.10
26687;DHT22;14298;50.900;4.648;2023-02-28T14:45:34;5.00;97.10
26687;DHT22;14298;50.900;4.648;2023-02-28T14:48:09;5.00;97.10
26687;DHT22;14298;50.900;4.648;2023-02-28T14:50:37;4.90;97.10
26687;DHT22;14298;50.900;4.648;2023-02-28T14:53:09;5.00;97.10
26687;DHT22;14298;50.900;4.648;2023-02-28T14:55:37;5.10;97.10
26687;DHT22;14298;50.900;4.648;2023-02-28T14:58:19;5.20;97.10
26687;DHT22;14298;50.900;4.648;2023-02-28T15:00:46;5.30;97.10
26687;DHT22;14298;50.900;4.648;2023-02-28T15:06:16;5.00;97.10
26687;DHT22;14298;50.900;4.648;2023-02-28T15:08:45;5.10;97.10
26687;DHT22;14298;50.900;4.648;2023-02-28T15:11:18;5.10;97.10
26687;DHT22;14298;50.900;4.648;2023-02-28T15:13:51;5.10;97.10
26687;DHT22;14298;50.900;4.648;2023-02-28T15:16:39;5.00;97.10
26687;DHT22;14298;50.900;4.648;2023-02-28T15:19:05;5.20;97.10
26687;DHT22;14298;50.900;4.648;2023-02-28T15:21:38;5.00;97.10
26687;DHT22;14298;50.900;4.648;2023-02-28T15:26:59;5.00;97.10
26687;DHT22;14298;50.900;4.648;2023-02-28T15:29:32;5.00;97.10
26687;DHT22;14298;50.900;4.648;2023-02-28T15:32:05;5.00;97.10
26687;DHT22;14298;50.900;4.648;2023-02-28T15:34:40;5.00;97.10
26687;DHT22;14298;50.900;4.648;2023-02-28T15:37:45;5.00;97.10
26687;DHT22;14298;50.900;4.648;2023-02-28T15:43:18;4.90;97.10
26687;DHT22;14298;50.900;4.648;2023-02-28T15:45:56;5.00;97.10
26687;DHT22;14298;50.900;4.648;2023-02-28T15:48:22;4.90;97.10
26687;DHT22;14298;50.900;4.648;2023-02-28T15:50:57;4.90;97.10
26687;DHT22;14298;50.900;4.648;2023-02-28T15:53:31;4.90;97.10
26687;DHT22;14298;50.900;4.648;2023-02-28T15:56:03;4.90;97.10
26687;DHT22;14298;50.900;4.648;2023-02-28T15:58:34;4.90;97.10
26687;DHT22;14298;50.900;4.648;2023-02-28T16:03:50;4.80;97.10
26687;DHT22;14298;50.900;4.648;2023-02-28T16:06:33;4.70;97.10
26687;DHT22;14298;50.900;4.648;2023-02-28T16:09:04;4.70;97.10
26687;DHT22;14298;50.900;4.648;2023-02-28T16:11:42;4.70;97.10
26687;DHT22;14298;50.900;4.648;2023-02-28T16:14:06;4.60;97.10
26687;DHT22;14298;50.900;4.648;2023-02-28T16:16:41;4.60;97.10
26687;DHT22;14298;50.900;4.648;2023-02-28T16:19:08;4.60;97.10
26687;DHT22;14298;50.900;4.648;2023-02-28T16:21:36;4.60;97.10
26687;DHT22;14298;50.900;4.648;2023-02-28T16:24:06;4.60;97.10
26687;DHT22;14298;50.900;4.648;2023-02-28T16:26:35;4.60;97.10
26687;DHT22;14298;50.900;4.648;2023-02-28T16:29:06;4.60;97.10
26687;DHT22;14298;50.900;4.648;2023-02-28T16:31:37;4.60;97.10
26687;DHT22;14298;50.900;4.648;2023-02-28T16:34:06;4.50;97.10
26687;DHT22;14298;50.900;4.648;2023-02-28T16:36:34;4.50;97.10
26687;DHT22;14298;50.900;4.648;2023-02-28T16:39:02;4.50;97.10
26687;DHT22;14298;50.900;4.648;2023-02-28T16:41:33;4.40;97.10
26687;DHT22;14298;50.900;4.648;2023-02-28T16:44:03;4.40;97.10
26687;DHT22;14298;50.900;4.648;2023-02-28T16:46:34;4.40;97.10
26687;DHT22;14298;50.900;4.648;2023-02-28T16:49:02;4.30;97.10
26687;DHT22;14298;50.900;4.648;2023-02-28T16:51:31;4.30;97.10
26687;DHT22;14298;50.900;4.648;2023-02-28T16:53:59;4.20;97.10
26687;DHT22;14298;50.900;4.648;2023-02-28T16:56:28;4.20;97.10
26687;DHT22;14298;50.900;4.648;2023-02-28T16:58:59;4.10;97.10
26687;DHT22;14298;50.900;4.648;2023-02-28T17:01:28;4.10;97.10
26687;DHT22;14298;50.900;4.648;2023-02-28T17:03:56;4.10;97.10
26687;DHT22;14298;50.900;4.648;2023-02-28T17:06:27;4.00;97.10
26687;DHT22;14298;50.900;4.648;2023-02-28T17:08:57;4.00;97.10
26687;DHT22;14298;50.900;4.648;2023-02-28T17:11:26;4.00;97.10
26687;DHT22;14298;50.900;4.648;2023-02-28T17:13:55;3.90;97.10
26687;DHT22;14298;50.900;4.648;2023-02-28T17:16:25;3.80;97.10
26687;DHT22;14298;50.900;4.648;2023-02-28T17:18:59;3.90;97.10
26687;DHT22;14298;50.900;4.648;2023-02-28T17:21:28;3.80;97.10
26687;DHT22;14298;50.900;4.648;2023-02-28T17:23:57;3.70;97.10
26687;DHT22;14298;50.900;4.648;2023-02-28T17:26:26;3.60;97.10
26687;DHT22;14298;50.900;4.648;2023-02-28T17:28:57;3.50;97.10
26687;DHT22;14298;50.900;4.648;2023-02-28T17:31:26;3.50;97.10
26687;DHT22;14298;50.900;4.648;2023-02-28T17:33:55;3.50;97.10
26687;DHT22;14298;50.900;4.648;2023-02-28T17:36:25;3.40;97.10
26687;DHT22;14298;50.900;4.648;2023-02-28T17:38:54;3.40;97.10
26687;DHT22;14298;50.900;4.648;2023-02-28T17:41:22;3.50;97.10
26687;DHT22;14298;50.900;4.648;2023-02-28T17:43:51;3.50;97.10
26687;DHT22;14298;50.900;4.648;2023-02-28T17:46:23;3.30;97.10
26687;DHT22;14298;50.900;4.648;2023-02-28T17:48:52;3.20;97.10
26687;DHT22;14298;50.900;4.648;2023-02-28T17:51:22;3.20;97.10
26687;DHT22;14298;50.900;4.648;2023-02-28T17:53:52;3.10;97.10
26687;DHT22;14298;50.900;4.648;2023-02-28T17:56:23;3.20;97.10
26687;DHT22;14298;50.900;4.648;2023-02-28T17:58:54;3.20;97.10
26687;DHT22;14298;50.900;4.648;2023-02-28T18:01:23;3.10;97.10
26687;DHT22;14298;50.900;4.648;2023-02-28T18:03:53;3.10;97.10
26687;DHT22;14298;50.900;4.648;2023-02-28T18:06:25;3.10;97.10
26687;DHT22;14298;50.900;4.648;2023-02-28T18:08:54;3.00;97.10
26687;DHT22;14298;50.900;4.648;2023-02-28T18:11:23;2.90;97.10
26687;DHT22;14298;50.900;4.648;2023-02-28T18:13:54;2.90;97.10
26687;DHT22;14298;50.900;4.648;2023-02-28T18:16:23;2.70;97.10
26687;DHT22;14298;50.900;4.648;2023-02-28T18:18:52;2.50;97.10
26687;DHT22;14298;50.900;4.648;2023-02-28T18:21:20;2.20;97.10
26687;DHT22;14298;50.900;4.648;2023-02-28T18:23:48;2.00;97.10
26687;DHT22;14298;50.900;4.648;2023-02-28T18:26:19;1.70;97.10
26687;DHT22;14298;50.900;4.648;2023-02-28T18:28:47;1.50;97.10
26687;DHT22;14298;50.900;4.648;2023-02-28T18:31:18;1.20;97.10
26687;DHT22;14298;50.900;4.648;2023-02-28T18:33:49;1.00;97.10
26687;DHT22;14298;50.900;4.648;2023-02-28T18:36:19;0.80;97.10
26687;DHT22;14298;50.900;4.648;2023-02-28T18:38:49;0.60;97.10